createdAt,value
2023-03-24T00:01:05.141Z,14.39
2023-03-24T00:03:32.326Z,14.38
2023-03-24T00:06:02.289Z,14.33
2023-03-24T00:08:35.178Z,14.24
2023-03-24T00:11:06.504Z,14.37
2023-03-24T00:13:38.080Z,14.36
2023-03-24T00:16:10.607Z,14.41
2023-03-24T00:18:37.626Z,14.42
2023-03-24T00:21:05.130Z,14.48
2023-03-24T00:23:32.514Z,14.51
2023-03-24T00:26:04.740Z,14.53
2023-03-24T00:28:36.871Z,14.55
2023-03-24T00:31:06.111Z,14.47
2023-03-24T00:33:35.116Z,14.54
2023-03-24T00:36:02.967Z,14.56
2023-03-24T00:38:29.848Z,14.55
2023-03-24T00:40:56.254Z,14.52
2023-03-24T00:43:22.575Z,14.49
2023-03-24T00:45:48.895Z,14.51
2023-03-24T00:48:20.258Z,14.41
2023-03-24T00:50:50.100Z,14.36
2023-03-24T00:53:17.917Z,14.38
2023-03-24T00:55:47.883Z,14.37
2023-03-24T00:58:17.998Z,14.34
2023-03-24T01:00:49.847Z,14.31
2023-03-24T01:03:17.857Z,14.30
2023-03-24T01:05:48.229Z,14.31
2023-03-24T01:08:20.170Z,14.33
2023-03-24T01:10:53.269Z,14.33
2023-03-24T01:13:24.950Z,14.31
2023-03-24T01:15:51.971Z,14.23
2023-03-24T01:18:18.583Z,14.23
2023-03-24T01:20:46.018Z,14.21
2023-03-24T01:23:31.012Z,14.26
2023-03-24T01:25:57.291Z,14.22
2023-03-24T01:28:25.198Z,14.22
2023-03-24T01:30:53.209Z,14.19
2023-03-24T01:33:20.757Z,14.14
2023-03-24T01:35:47.119Z,14.22
2023-03-24T01:38:14.821Z,14.19
2023-03-24T01:40:44.201Z,14.16
2023-03-24T01:43:20.064Z,14.15
2023-03-24T01:46:22.014Z,14.17
2023-03-24T01:48:55.216Z,14.21
2023-03-24T01:51:34.762Z,14.26
2023-03-24T01:54:07.843Z,14.33
2023-03-24T01:56:38.323Z,14.41
2023-03-24T01:59:14.967Z,14.46
2023-03-24T02:01:41.835Z,14.51
2023-03-24T02:04:08.995Z,14.53
2023-03-24T02:06:41.195Z,14.53
2023-03-24T02:09:08.816Z,14.59
2023-03-24T02:11:36.837Z,14.71
2023-03-24T02:14:05.351Z,14.73
2023-03-24T02:17:02.521Z,14.83
2023-03-24T02:19:58.395Z,14.82
2023-03-24T02:22:30.535Z,14.82
2023-03-24T02:25:21.475Z,14.86
2023-03-24T02:28:09.405Z,14.88
2023-03-24T02:30:59.749Z,14.81
2023-03-24T02:33:41.085Z,14.82
2023-03-24T02:36:26.147Z,14.83
2023-03-24T02:39:24.027Z,14.90
2023-03-24T02:42:14.803Z,14.90
2023-03-24T02:45:00.111Z,14.86
2023-03-24T02:47:36.927Z,14.86
2023-03-24T02:50:28.227Z,14.87
2023-03-24T02:53:15.274Z,14.92
2023-03-24T02:55:51.828Z,14.97
2023-03-24T02:58:35.383Z,15.11
2023-03-24T03:01:41.207Z,15.32
2023-03-24T03:04:19.798Z,15.42
2023-03-24T03:06:52.750Z,15.50
2023-03-24T03:09:21.668Z,15.48
2023-03-24T03:11:51.724Z,15.49
2023-03-24T03:14:24.440Z,15.47
2023-03-24T03:16:59.791Z,15.55
2023-03-24T03:19:34.246Z,15.67
2023-03-24T03:22:02.618Z,15.73
2023-03-24T03:24:34.827Z,15.86
2023-03-24T03:27:05.563Z,15.88
2023-03-24T03:29:36.938Z,15.93
2023-03-24T03:32:09.416Z,15.94
2023-03-24T03:34:54.655Z,15.88
2023-03-24T03:37:47.177Z,15.87
2023-03-24T03:40:22.041Z,15.92
2023-03-24T03:42:48.836Z,16.01
2023-03-24T03:45:15.379Z,16.04
2023-03-24T03:47:41.841Z,16.08
2023-03-24T03:50:09.376Z,16.08
2023-03-24T03:52:38.670Z,16.05
2023-03-24T03:55:06.703Z,16.03
2023-03-24T03:57:35.301Z,15.98
2023-03-24T04:00:11.848Z,15.98
2023-03-24T04:02:54.414Z,15.96
2023-03-24T04:05:29.839Z,15.90
2023-03-24T04:08:14.940Z,15.86
2023-03-24T04:10:56.498Z,15.77
2023-03-24T04:13:31.926Z,15.73
2023-03-24T04:16:09.696Z,15.71
2023-03-24T04:19:01.619Z,15.65
2023-03-24T04:21:33.504Z,15.62
2023-03-24T04:24:26.668Z,15.56
2023-03-24T04:27:02.863Z,15.51
2023-03-24T04:29:54.944Z,15.52
2023-03-24T04:32:46.614Z,15.46
2023-03-24T04:35:31.548Z,15.45
2023-03-24T04:38:05.369Z,15.46
2023-03-24T04:40:33.372Z,15.42
2023-03-24T04:43:04.141Z,15.40
2023-03-24T04:45:33.482Z,15.40
2023-03-24T04:48:04.563Z,15.36
2023-03-24T04:50:43.197Z,15.34
2023-03-24T04:53:10.420Z,15.29
2023-03-24T04:56:02.607Z,15.26
2023-03-24T04:58:29.537Z,15.19
2023-03-24T05:00:56.553Z,15.17
2023-03-24T05:03:23.274Z,15.11
2023-03-24T05:05:50.552Z,15.05
2023-03-24T05:08:17.835Z,14.92
2023-03-24T05:10:44.869Z,14.88
2023-03-24T05:13:14.637Z,14.79
2023-03-24T05:15:41.286Z,14.67
2023-03-24T05:18:08.108Z,14.61
2023-03-24T05:20:34.636Z,14.50
2023-03-24T05:23:01.811Z,14.45
2023-03-24T05:25:28.184Z,14.30
2023-03-24T05:27:54.556Z,14.18
2023-03-24T05:30:20.979Z,14.05
2023-03-24T05:32:47.524Z,14.02
2023-03-24T05:35:13.962Z,13.92
2023-03-24T05:37:40.624Z,13.84
2023-03-24T05:40:07.636Z,13.83
2023-03-24T05:42:33.975Z,13.82
2023-03-24T05:45:00.460Z,13.83
2023-03-24T05:47:27.180Z,13.81
2023-03-24T05:49:53.655Z,13.76
2023-03-24T05:52:20.687Z,13.77
2023-03-24T05:54:51.874Z,13.78
2023-03-24T05:57:19.395Z,13.79
2023-03-24T05:59:46.066Z,13.80
2023-03-24T06:02:12.431Z,13.78
2023-03-24T06:04:38.742Z,13.77
2023-03-24T06:07:05.101Z,13.77
2023-03-24T06:09:40.458Z,13.79
2023-03-24T06:12:08.972Z,13.82
2023-03-24T06:14:35.459Z,13.83
2023-03-24T06:17:01.778Z,13.82
2023-03-24T06:19:30.668Z,13.84
2023-03-24T06:22:00.431Z,13.84
2023-03-24T06:24:27.461Z,13.90
2023-03-24T06:26:58.895Z,14.00
2023-03-24T06:29:25.195Z,14.06
2023-03-24T06:31:51.565Z,14.11
2023-03-24T06:34:17.903Z,14.11
2023-03-24T06:36:44.711Z,14.14
2023-03-24T06:39:11.032Z,14.16
2023-03-24T06:41:37.320Z,14.18
2023-03-24T06:44:03.718Z,14.18
2023-03-24T06:46:30.169Z,14.23
2023-03-24T06:48:56.988Z,14.30
2023-03-24T06:51:23.301Z,14.34
2023-03-24T06:53:49.576Z,14.36
2023-03-24T06:56:18.108Z,14.46
2023-03-24T06:58:44.866Z,14.54
2023-03-24T07:01:11.611Z,14.61
2023-03-24T07:03:38.902Z,14.64
2023-03-24T07:06:07.470Z,14.67
2023-03-24T07:08:38.056Z,14.73
2023-03-24T07:11:06.951Z,14.73
2023-03-24T07:13:33.338Z,14.73
2023-03-24T07:15:59.640Z,14.83
2023-03-24T07:18:26.226Z,14.86
2023-03-24T07:20:52.496Z,14.88
2023-03-24T07:23:18.823Z,14.87
2023-03-24T07:25:45.807Z,14.88
2023-03-24T07:28:12.214Z,14.85
2023-03-24T07:30:40.886Z,14.81
2023-03-24T07:33:10.739Z,14.76
2023-03-24T07:35:37.203Z,14.72
2023-03-24T07:38:03.708Z,14.63
2023-03-24T07:40:30.581Z,14.59
2023-03-24T07:43:01.260Z,14.56
2023-03-24T07:45:28.275Z,14.54
2023-03-24T07:47:57.014Z,14.46
2023-03-24T07:50:23.362Z,14.40
2023-03-24T07:52:50.415Z,14.35
2023-03-24T07:55:16.727Z,14.31
2023-03-24T07:57:45.888Z,14.30
2023-03-24T08:00:17.903Z,14.33
2023-03-24T08:02:47.422Z,14.34
2023-03-24T08:05:14.742Z,14.32
2023-03-24T08:07:45.263Z,14.32
2023-03-24T08:10:13.704Z,14.31
2023-03-24T08:12:40.472Z,14.31
2023-03-24T08:15:08.835Z,14.31
2023-03-24T08:17:36.680Z,14.31
2023-03-24T08:20:08.186Z,14.31
2023-03-24T08:22:34.476Z,14.29
2023-03-24T08:25:01.102Z,14.28
2023-03-24T08:27:27.491Z,14.27
2023-03-24T08:29:53.784Z,14.29
2023-03-24T08:32:20.101Z,14.28
2023-03-24T08:34:46.382Z,14.27
2023-03-24T08:37:12.901Z,14.25
2023-03-24T08:39:39.225Z,14.23
2023-03-24T08:42:05.845Z,14.22
2023-03-24T08:44:33.006Z,14.18
2023-03-24T08:47:01.453Z,14.18
2023-03-24T08:49:27.964Z,14.15
2023-03-24T08:51:54.294Z,14.17
2023-03-24T08:54:23.515Z,14.17
2023-03-24T08:56:49.930Z,14.17
2023-03-24T08:59:16.743Z,14.21
2023-03-24T09:01:43.170Z,14.20
2023-03-24T09:04:09.711Z,14.27
2023-03-24T09:06:36.608Z,14.29
2023-03-24T09:09:03.028Z,14.40
2023-03-24T09:11:29.350Z,14.47
2023-03-24T09:13:55.708Z,14.47
2023-03-24T09:16:23.277Z,14.43
2023-03-24T09:18:49.648Z,14.46
2023-03-24T09:21:16.959Z,14.42
2023-03-24T09:23:43.323Z,14.38
2023-03-24T09:26:09.773Z,14.28
2023-03-24T09:28:36.135Z,14.27
2023-03-24T09:31:05.655Z,14.24
2023-03-24T09:33:34.597Z,14.21
2023-03-24T09:36:02.367Z,14.17
2023-03-24T09:38:29.763Z,14.18
2023-03-24T09:41:00.815Z,14.20
2023-03-24T09:43:36.489Z,14.14
2023-03-24T09:46:05.622Z,14.05
2023-03-24T09:48:44.287Z,13.98
2023-03-24T09:51:22.260Z,13.96
2023-03-24T09:54:04.240Z,13.98
2023-03-24T09:56:33.542Z,14.04
2023-03-24T09:59:06.906Z,14.10
2023-03-24T10:01:36.360Z,14.06
2023-03-24T10:04:04.382Z,14.00
2023-03-24T10:06:34.020Z,13.94
2023-03-24T10:09:28.581Z,13.94
2023-03-24T10:12:04.660Z,13.90
2023-03-24T10:14:59.319Z,13.81
2023-03-24T10:17:47.703Z,13.70
2023-03-24T10:20:31.848Z,13.56
2023-03-24T10:23:28.606Z,13.29
2023-03-24T10:26:23.013Z,13.03
2023-03-24T10:28:49.272Z,12.88
2023-03-24T10:31:19.948Z,12.76
2023-03-24T10:33:47.313Z,12.67
2023-03-24T10:36:20.003Z,12.59
2023-03-24T10:38:47.095Z,12.60
2023-03-24T10:41:25.914Z,12.66
2023-03-24T10:43:54.387Z,12.79
2023-03-24T10:46:24.991Z,12.82
2023-03-24T10:49:12.119Z,12.82
2023-03-24T10:51:39.874Z,12.96
2023-03-24T10:54:16.779Z,13.00
2023-03-24T10:56:47.057Z,13.04
2023-03-24T10:59:29.662Z,13.07
2023-03-24T11:02:00.585Z,13.11
2023-03-24T11:04:28.564Z,13.07
2023-03-24T11:07:03.990Z,13.18
2023-03-24T11:09:38.203Z,13.20
2023-03-24T11:12:04.822Z,13.20
2023-03-24T11:14:31.476Z,13.20
2023-03-24T11:17:15.241Z,13.18
2023-03-24T11:19:54.299Z,13.15
2023-03-24T11:22:21.448Z,13.12
2023-03-24T11:24:52.448Z,13.09
2023-03-24T11:27:19.876Z,13.14
2023-03-24T11:29:53.894Z,13.26
2023-03-24T11:32:29.955Z,13.30
2023-03-24T11:35:07.464Z,13.54
2023-03-24T11:37:36.157Z,13.72
2023-03-24T11:40:22.244Z,13.84
2023-03-24T11:43:03.918Z,13.87
2023-03-24T11:45:32.973Z,13.88
2023-03-24T11:48:00.458Z,13.90
2023-03-24T11:50:33.602Z,13.86
2023-03-24T11:53:11.670Z,13.95
2023-03-24T11:56:03.362Z,13.95
2023-03-24T11:58:47.284Z,13.96
2023-03-24T12:01:29.182Z,14.03
2023-03-24T12:04:13.564Z,14.09
2023-03-24T12:06:48.724Z,14.22
2023-03-24T12:09:24.456Z,14.25
2023-03-24T12:12:14.140Z,14.26
2023-03-24T12:14:47.638Z,14.24
2023-03-24T12:17:17.396Z,14.25
2023-03-24T12:20:01.925Z,14.22
2023-03-24T12:22:53.124Z,14.21
2023-03-24T12:25:30.558Z,14.10
2023-03-24T12:28:10.625Z,14.17
2023-03-24T12:30:56.708Z,14.22
2023-03-24T12:33:50.469Z,14.31
2023-03-24T12:36:23.685Z,14.41
2023-03-24T12:39:10.172Z,14.45
2023-03-24T12:41:44.779Z,14.58
2023-03-24T12:44:23.830Z,14.86
2023-03-24T12:46:59.069Z,15.31
2023-03-24T12:49:51.121Z,15.79
2023-03-24T12:52:31.242Z,16.05
2023-03-24T12:55:08.222Z,16.26
2023-03-24T12:58:00.792Z,16.56
2023-03-24T13:00:33.148Z,16.84
2023-03-24T13:03:06.464Z,16.94
2023-03-24T13:05:38.671Z,16.96
2023-03-24T13:08:16.475Z,17.20
2023-03-24T13:10:43.615Z,17.32
2023-03-24T13:13:20.636Z,17.15
2023-03-24T13:15:52.201Z,16.92
2023-03-24T13:18:37.059Z,16.84
2023-03-24T13:21:11.179Z,16.87
2023-03-24T13:24:07.991Z,16.83
2023-03-24T13:27:20.944Z,16.69
2023-03-24T13:30:05.411Z,16.84
2023-03-24T13:32:44.144Z,17.11
2023-03-24T13:35:31.537Z,17.79
2023-03-24T13:38:19.531Z,18.45
2023-03-24T13:40:50.750Z,18.97
2023-03-24T13:43:22.051Z,19.39
2023-03-24T13:45:51.615Z,19.59
2023-03-24T13:48:29.420Z,19.60
2023-03-24T13:51:04.737Z,19.66
2023-03-24T13:53:35.957Z,19.83
2023-03-24T13:56:05.555Z,19.77
2023-03-24T13:59:06.501Z,19.62
2023-03-24T14:01:37.059Z,19.59
2023-03-24T14:04:18.688Z,19.77
2023-03-24T14:06:56.811Z,19.96
2023-03-24T14:09:26.319Z,20.02
2023-03-24T14:11:55.404Z,20.13
2023-03-24T14:14:24.442Z,20.37
2023-03-24T14:17:06.287Z,20.48
2023-03-24T14:20:08.873Z,20.43
2023-03-24T14:22:41.163Z,20.16
2023-03-24T14:25:16.592Z,20.06
2023-03-24T14:27:45.320Z,20.13
2023-03-24T14:30:26.081Z,19.91
2023-03-24T14:32:56.274Z,19.30
2023-03-24T14:35:34.799Z,18.96
2023-03-24T14:38:20.591Z,18.51
2023-03-24T14:40:49.783Z,18.12
2023-03-24T14:43:23.951Z,17.83
2023-03-24T14:45:53.568Z,17.61
2023-03-24T14:48:38.013Z,17.32
2023-03-24T14:51:36.153Z,17.26
2023-03-24T14:54:19.008Z,17.15
2023-03-24T14:56:51.704Z,17.07
2023-03-24T14:59:25.564Z,17.05
2023-03-24T15:02:00.561Z,17.05
2023-03-24T15:04:27.117Z,17.10
2023-03-24T15:06:53.534Z,17.14
2023-03-24T15:09:19.874Z,17.23
2023-03-24T15:11:48.167Z,17.21
2023-03-24T15:14:22.520Z,17.26
2023-03-24T15:17:00.966Z,17.38
2023-03-24T15:19:29.614Z,17.45
2023-03-24T15:22:00.718Z,17.62
2023-03-24T15:24:33.422Z,17.80
2023-03-24T15:27:06.460Z,18.06
2023-03-24T15:29:37.762Z,18.28
2023-03-24T15:32:05.319Z,18.55
2023-03-24T15:34:35.706Z,18.39
2023-03-24T15:37:05.279Z,18.23
2023-03-24T15:39:36.819Z,18.03
2023-03-24T15:42:08.781Z,17.92
2023-03-24T15:44:38.994Z,17.75
2023-03-24T15:47:16.147Z,17.67
2023-03-24T15:49:57.817Z,17.73
2023-03-24T15:52:31.556Z,17.66
2023-03-24T15:55:07.099Z,17.62
2023-03-24T15:57:43.672Z,17.71
2023-03-24T16:00:19.028Z,17.84
2023-03-24T16:02:48.663Z,17.98
2023-03-24T16:05:22.650Z,17.92
2023-03-24T16:08:23.372Z,17.69
2023-03-24T16:11:06.934Z,17.52
2023-03-24T16:13:34.591Z,17.51
2023-03-24T16:16:28.923Z,17.68
2023-03-24T16:18:59.542Z,17.83
2023-03-24T16:21:28.648Z,17.89
2023-03-24T16:23:57.342Z,17.94
2023-03-24T16:26:29.383Z,17.91
2023-03-24T16:29:02.959Z,17.86
2023-03-24T16:31:33.603Z,17.79
2023-03-24T16:34:00.246Z,17.66
2023-03-24T16:36:26.692Z,17.92
2023-03-24T16:38:53.842Z,17.93
2023-03-24T16:41:20.621Z,17.93
2023-03-24T16:43:47.459Z,17.85
2023-03-24T16:46:31.103Z,17.66
2023-03-24T16:48:58.273Z,17.57
2023-03-24T16:51:24.583Z,17.42
2023-03-24T16:53:51.010Z,17.26
2023-03-24T16:56:18.389Z,17.18
2023-03-24T16:58:46.291Z,17.00
2023-03-24T17:01:27.117Z,16.92
2023-03-24T17:03:59.038Z,16.81
2023-03-24T17:06:27.133Z,16.62
2023-03-24T17:08:53.586Z,16.59
2023-03-24T17:11:23.693Z,16.50
2023-03-24T17:13:50.012Z,16.37
2023-03-24T17:16:16.399Z,16.23
2023-03-24T17:18:42.792Z,16.08
2023-03-24T17:21:18.692Z,15.92
2023-03-24T17:23:49.409Z,15.82
2023-03-24T17:26:16.628Z,15.69
2023-03-24T17:28:43.780Z,15.69
2023-03-24T17:31:10.253Z,15.66
2023-03-24T17:33:36.799Z,15.61
2023-03-24T17:36:03.275Z,15.56
2023-03-24T17:38:29.587Z,15.56
2023-03-24T17:41:03.877Z,15.56
2023-03-24T17:43:30.831Z,15.51
2023-03-24T17:46:01.413Z,15.44
2023-03-24T17:48:28.238Z,15.39
2023-03-24T17:50:56.634Z,15.27
2023-03-24T17:53:28.465Z,15.17
2023-03-24T17:55:57.282Z,15.10
2023-03-24T17:58:25.081Z,15.12
2023-03-24T18:00:51.769Z,15.04
2023-03-24T18:03:18.740Z,14.97
2023-03-24T18:05:45.348Z,14.99
2023-03-24T18:08:12.223Z,14.92
2023-03-24T18:10:38.890Z,14.84
2023-03-24T18:13:08.388Z,14.84
2023-03-24T18:15:34.864Z,14.70
2023-03-24T18:18:01.676Z,14.70
2023-03-24T18:20:28.752Z,14.70
2023-03-24T18:22:55.046Z,14.67
2023-03-24T18:25:21.925Z,14.62
2023-03-24T18:27:48.298Z,14.60
2023-03-24T18:30:15.365Z,14.56
2023-03-24T18:32:42.730Z,14.50
2023-03-24T18:35:16.180Z,14.49
2023-03-24T18:37:43.781Z,14.46
2023-03-24T18:40:10.958Z,14.35
2023-03-24T18:42:37.760Z,14.39
2023-03-24T18:45:06.761Z,14.37
2023-03-24T18:47:33.123Z,14.31
2023-03-24T18:49:59.560Z,14.26
2023-03-24T18:52:26.234Z,14.23
2023-03-24T18:54:54.140Z,14.18
2023-03-24T18:57:21.249Z,14.15
2023-03-24T18:59:47.555Z,14.10
2023-03-24T19:02:15.152Z,14.08
2023-03-24T19:04:42.090Z,14.08
2023-03-24T19:07:14.103Z,14.07
2023-03-24T19:09:42.354Z,14.03
2023-03-24T19:12:09.430Z,13.95
2023-03-24T19:14:35.913Z,13.92
2023-03-24T19:17:02.303Z,13.90
2023-03-24T19:19:31.284Z,14.05
2023-03-24T19:21:58.536Z,14.12
2023-03-24T19:24:26.107Z,14.15
2023-03-24T19:26:53.673Z,14.14
2023-03-24T19:29:21.129Z,14.06
2023-03-24T19:31:48.212Z,14.06
2023-03-24T19:34:14.610Z,14.10
2023-03-24T19:36:45.953Z,14.10
2023-03-24T19:39:13.944Z,14.09
2023-03-24T19:41:41.229Z,14.08
2023-03-24T19:44:07.987Z,14.07
2023-03-24T19:46:34.555Z,14.06
2023-03-24T19:49:01.110Z,14.12
2023-03-24T19:51:27.461Z,14.15
2023-03-24T19:53:53.844Z,14.18
2023-03-24T19:56:20.675Z,14.16
2023-03-24T19:58:47.382Z,14.09
2023-03-24T20:01:13.671Z,13.99
2023-03-24T20:03:40.212Z,13.90
2023-03-24T20:06:10.012Z,13.83
2023-03-24T20:08:37.567Z,13.73
2023-03-24T20:11:10.979Z,13.62
2023-03-24T20:13:37.738Z,13.54
2023-03-24T20:16:04.551Z,13.35
2023-03-24T20:18:30.986Z,13.38
2023-03-24T20:20:58.871Z,13.22
2023-03-24T20:23:25.305Z,13.14
2023-03-24T20:25:52.015Z,12.99
2023-03-24T20:28:18.980Z,13.01
2023-03-24T20:30:45.963Z,13.02
2023-03-24T20:33:13.234Z,12.98
2023-03-24T20:35:39.794Z,12.97
2023-03-24T20:38:06.314Z,12.93
2023-03-24T20:40:32.690Z,12.83
2023-03-24T20:42:59.019Z,12.80
2023-03-24T20:45:25.556Z,12.81
2023-03-24T20:47:52.080Z,12.80
2023-03-24T20:50:18.632Z,12.74
2023-03-24T20:52:44.965Z,12.67
2023-03-24T20:55:12.355Z,12.62
2023-03-24T20:57:39.009Z,12.58
2023-03-24T21:00:13.780Z,12.56
2023-03-24T21:02:41.974Z,12.48
2023-03-24T21:05:09.120Z,12.46
2023-03-24T21:07:38.049Z,12.45
2023-03-24T21:10:06.300Z,12.44
2023-03-24T21:12:33.249Z,12.46
2023-03-24T21:14:59.561Z,12.51
2023-03-24T21:17:32.543Z,12.56
2023-03-24T21:20:13.490Z,12.60
2023-03-24T21:22:55.542Z,12.62
2023-03-24T21:25:25.235Z,12.60
2023-03-24T21:27:52.495Z,12.58
2023-03-24T21:30:19.283Z,12.65
2023-03-24T21:32:46.756Z,12.67
2023-03-24T21:35:14.495Z,12.66
2023-03-24T21:37:45.592Z,12.60
2023-03-24T21:40:18.348Z,12.61
2023-03-24T21:42:45.127Z,12.57
2023-03-24T21:45:15.253Z,12.50
2023-03-24T21:47:43.058Z,12.48
2023-03-24T21:50:11.429Z,12.51
2023-03-24T21:52:41.521Z,12.48
2023-03-24T21:55:08.615Z,12.45
2023-03-24T21:57:35.035Z,12.35
2023-03-24T22:00:01.961Z,12.35
2023-03-24T22:02:30.185Z,12.30
2023-03-24T22:05:01.453Z,12.23
2023-03-24T22:07:37.321Z,12.18
2023-03-24T22:10:05.621Z,12.08
2023-03-24T22:12:32.909Z,12.09
2023-03-24T22:14:59.735Z,12.10
2023-03-24T22:17:26.277Z,12.10
2023-03-24T22:19:52.805Z,12.07
2023-03-24T22:22:19.137Z,12.03
2023-03-24T22:24:45.490Z,11.97
2023-03-24T22:27:11.820Z,11.90
2023-03-24T22:29:38.435Z,11.92
2023-03-24T22:32:05.013Z,11.89
2023-03-24T22:34:31.504Z,11.85
2023-03-24T22:36:57.791Z,11.81
2023-03-24T22:39:24.360Z,11.89
2023-03-24T22:41:50.728Z,11.88
2023-03-24T22:44:17.016Z,11.87
2023-03-24T22:46:43.380Z,11.82
2023-03-24T22:49:09.781Z,11.82
2023-03-24T22:51:36.174Z,11.75
2023-03-24T22:54:02.495Z,11.77
2023-03-24T22:56:28.923Z,11.79
2023-03-24T22:58:55.558Z,11.71
2023-03-24T23:01:21.913Z,11.75
2023-03-24T23:03:48.224Z,11.72
2023-03-24T23:06:15.837Z,11.62
2023-03-24T23:08:42.187Z,11.60
2023-03-24T23:11:09.342Z,11.54
2023-03-24T23:13:35.745Z,11.51
2023-03-24T23:16:02.900Z,11.39
2023-03-24T23:18:29.317Z,11.39
2023-03-24T23:21:09.054Z,11.42
2023-03-24T23:23:36.610Z,11.40
2023-03-24T23:26:05.436Z,11.32
2023-03-24T23:28:33.185Z,11.39
2023-03-24T23:30:59.556Z,11.39
2023-03-24T23:33:27.380Z,11.38
2023-03-24T23:35:58.077Z,11.49
2023-03-24T23:38:24.696Z,11.55
2023-03-24T23:40:51.019Z,11.58
2023-03-24T23:43:17.324Z,11.64
2023-03-24T23:45:45.154Z,11.65
2023-03-24T23:48:12.238Z,11.72
2023-03-24T23:50:38.651Z,11.72
2023-03-24T23:53:05.351Z,11.46
2023-03-24T23:55:31.763Z,11.21
2023-03-24T23:57:58.382Z,11.01
